createdAt,value
2019-04-26T00:00:12.000Z,"  19.57"
2019-04-26T00:01:12.000Z,"  19.56"
2019-04-26T00:02:12.000Z,"  19.57"
2019-04-26T00:03:14.000Z,"  19.56"
2019-04-26T00:04:14.000Z,"  19.53"
2019-04-26T00:05:12.000Z,"  19.55"
2019-04-26T00:06:13.000Z,"  19.55"
2019-04-26T00:07:13.000Z,"  19.55"
2019-04-26T00:08:13.000Z,"  19.54"
2019-04-26T00:09:13.000Z,"  19.56"
2019-04-26T00:10:13.000Z,"  19.55"
2019-04-26T00:11:13.000Z,"  19.53"
2019-04-26T00:12:13.000Z,"  19.55"
2019-04-26T00:13:12.000Z,"  19.55"
2019-04-26T00:14:12.000Z,"  19.54"
2019-04-26T00:15:12.000Z,"  19.54"
2019-04-26T00:16:13.000Z,"  19.55"
2019-04-26T00:17:12.000Z,"  19.55"
2019-04-26T00:18:13.000Z,"  19.53"
2019-04-26T00:19:13.000Z,"  19.52"
2019-04-26T00:20:12.000Z,"  19.53"
2019-04-26T00:21:13.000Z,"  19.52"
2019-04-26T00:22:13.000Z,"  19.53"
2019-04-26T00:23:13.000Z,"  19.52"
2019-04-26T00:24:13.000Z,"  19.52"
2019-04-26T00:25:13.000Z,"  19.56"
2019-04-26T00:26:13.000Z,"  19.54"
2019-04-26T00:27:13.000Z,"  19.53"
2019-04-26T00:28:13.000Z,"  19.52"
2019-04-26T00:29:12.000Z,"  19.52"
2019-04-26T00:30:12.000Z,"  19.55"
2019-04-26T00:31:12.000Z,"  19.54"
2019-04-26T00:32:12.000Z,"  19.53"
2019-04-26T00:33:12.000Z,"  19.52"
2019-04-26T00:34:12.000Z,"  19.55"
2019-04-26T00:35:12.000Z,"  19.52"
2019-04-26T00:36:12.000Z,"  19.52"
2019-04-26T00:37:12.000Z,"  19.52"
2019-04-26T00:38:12.000Z,"  19.51"
2019-04-26T00:39:12.000Z,"  19.52"
2019-04-26T00:40:12.000Z,"  19.52"
2019-04-26T00:41:12.000Z,"  19.52"
2019-04-26T00:42:12.000Z,"  19.51"
2019-04-26T00:43:12.000Z,"  19.50"
2019-04-26T00:44:12.000Z,"  19.53"
2019-04-26T00:45:12.000Z,"  19.50"
2019-04-26T00:46:12.000Z,"  19.50"
2019-04-26T00:47:13.000Z,"  19.51"
2019-04-26T00:48:12.000Z,"  19.51"
2019-04-26T00:49:12.000Z,"  19.50"
2019-04-26T00:50:12.000Z,"  19.50"
2019-04-26T00:51:12.000Z,"  19.51"
2019-04-26T00:52:12.000Z,"  19.50"
2019-04-26T00:53:12.000Z,"  19.47"
2019-04-26T00:54:12.000Z,"  19.48"
2019-04-26T00:55:12.000Z,"  19.50"
2019-04-26T00:56:12.000Z,"  19.48"
2019-04-26T00:57:12.000Z,"  19.50"
2019-04-26T00:58:12.000Z,"  19.50"
2019-04-26T00:59:12.000Z,"  19.50"
2019-04-26T01:00:13.000Z,"  19.50"
2019-04-26T01:01:13.000Z,"  19.47"
2019-04-26T01:02:13.000Z,"  19.50"
2019-04-26T01:03:13.000Z,"  19.47"
2019-04-26T01:04:13.000Z,"  19.47"
2019-04-26T01:05:13.000Z,"  19.48"
2019-04-26T01:06:13.000Z,"  19.50"
2019-04-26T01:07:13.000Z,"  19.48"
2019-04-26T01:08:12.000Z,"  19.46"
2019-04-26T01:09:13.000Z,"  19.47"
2019-04-26T01:10:12.000Z,"  19.47"
2019-04-26T01:11:12.000Z,"  19.50"
2019-04-26T01:12:12.000Z,"  19.47"
2019-04-26T01:13:12.000Z,"  19.48"
2019-04-26T01:14:13.000Z,"  19.47"
2019-04-26T01:15:13.000Z,"  19.47"
2019-04-26T01:16:12.000Z,"  19.46"
2019-04-26T01:17:12.000Z,"  19.47"
2019-04-26T01:18:13.000Z,"  19.47"
2019-04-26T01:19:13.000Z,"  19.44"
2019-04-26T01:20:13.000Z,"  19.46"
2019-04-26T01:21:13.000Z,"  19.46"
2019-04-26T01:22:13.000Z,"  19.45"
2019-04-26T01:23:13.000Z,"  19.45"
2019-04-26T01:24:13.000Z,"  19.46"
2019-04-26T01:25:13.000Z,"  19.46"
2019-04-26T01:26:12.000Z,"  19.45"
2019-04-26T01:27:12.000Z,"  19.45"
2019-04-26T01:28:12.000Z,"  19.45"
2019-04-26T01:29:12.000Z,"  19.47"
2019-04-26T01:30:13.000Z,"  19.45"
2019-04-26T01:31:12.000Z,"  19.45"
2019-04-26T01:32:12.000Z,"  19.43"
2019-04-26T01:33:12.000Z,"  19.45"
2019-04-26T01:34:12.000Z,"  19.46"
2019-04-26T01:35:12.000Z,"  19.45"
2019-04-26T01:36:12.000Z,"  19.44"
2019-04-26T01:37:12.000Z,"  19.45"
2019-04-26T01:38:12.000Z,"  19.45"
2019-04-26T01:39:12.000Z,"  19.43"
2019-04-26T01:40:12.000Z,"  19.43"
2019-04-26T01:41:12.000Z,"  19.45"
2019-04-26T01:42:12.000Z,"  19.42"
2019-04-26T01:43:12.000Z,"  19.43"
2019-04-26T01:44:12.000Z,"  19.43"
2019-04-26T01:45:12.000Z,"  19.44"
2019-04-26T01:46:12.000Z,"  19.43"
2019-04-26T01:47:12.000Z,"  19.41"
2019-04-26T01:48:12.000Z,"  19.42"
2019-04-26T01:49:12.000Z,"  19.41"
2019-04-26T01:50:12.000Z,"  19.41"
2019-04-26T01:51:12.000Z,"  19.41"
2019-04-26T01:52:12.000Z,"  19.41"
2019-04-26T01:53:12.000Z,"  19.43"
2019-04-26T01:54:12.000Z,"  19.41"
2019-04-26T01:55:12.000Z,"  19.41"
2019-04-26T01:56:12.000Z,"  19.42"
2019-04-26T01:57:12.000Z,"  19.42"
2019-04-26T01:58:12.000Z,"  19.42"
2019-04-26T01:59:12.000Z,"  19.40"
2019-04-26T02:00:12.000Z,"  19.41"
2019-04-26T02:01:12.000Z,"  19.42"
2019-04-26T02:02:12.000Z,"  19.42"
2019-04-26T02:03:12.000Z,"  19.40"
2019-04-26T02:04:12.000Z,"  19.40"
2019-04-26T02:05:20.000Z,"  19.40"
2019-04-26T02:06:12.000Z,"  19.41"
2019-04-26T02:07:12.000Z,"  19.40"
2019-04-26T02:08:12.000Z,"  19.40"
2019-04-26T02:09:13.000Z,"  19.40"
2019-04-26T02:10:12.000Z,"  19.41"
2019-04-26T02:11:12.000Z,"  19.40"
2019-04-26T02:12:12.000Z,"  19.40"
2019-04-26T02:13:13.000Z,"  19.40"
2019-04-26T02:14:13.000Z,"  19.39"
2019-04-26T02:15:13.000Z,"  19.38"
2019-04-26T02:16:13.000Z,"  19.41"
2019-04-26T02:17:13.000Z,"  19.40"
2019-04-26T02:18:13.000Z,"  19.40"
2019-04-26T02:19:13.000Z,"  19.37"
2019-04-26T02:20:13.000Z,"  19.40"
2019-04-26T02:21:12.000Z,"  19.38"
2019-04-26T02:22:12.000Z,"  19.38"
2019-04-26T02:23:12.000Z,"  19.37"
2019-04-26T02:24:12.000Z,"  19.36"
2019-04-26T02:25:12.000Z,"  19.36"
2019-04-26T02:26:12.000Z,"  19.39"
2019-04-26T02:27:12.000Z,"  19.39"
2019-04-26T02:28:12.000Z,"  19.39"
2019-04-26T02:29:13.000Z,"  19.39"
2019-04-26T02:30:12.000Z,"  19.37"
2019-04-26T02:31:12.000Z,"  19.35"
2019-04-26T02:32:13.000Z,"  19.37"
2019-04-26T02:33:12.000Z,"  19.37"
2019-04-26T02:34:12.000Z,"  19.36"
2019-04-26T02:35:12.000Z,"  19.37"
2019-04-26T02:36:12.000Z,"  19.37"
2019-04-26T02:37:12.000Z,"  19.36"
2019-04-26T02:38:13.000Z,"  19.38"
2019-04-26T02:39:12.000Z,"  19.39"
2019-04-26T02:40:12.000Z,"  19.36"
2019-04-26T02:41:12.000Z,"  19.38"
2019-04-26T02:42:12.000Z,"  19.35"
2019-04-26T02:43:12.000Z,"  19.37"
2019-04-26T02:44:12.000Z,"  19.35"
2019-04-26T02:45:12.000Z,"  19.35"
2019-04-26T02:46:12.000Z,"  19.38"
2019-04-26T02:47:12.000Z,"  19.36"
2019-04-26T02:48:12.000Z,"  19.36"
2019-04-26T02:49:12.000Z,"  19.37"
2019-04-26T02:50:13.000Z,"  19.35"
2019-04-26T02:51:12.000Z,"  19.36"
2019-04-26T02:52:12.000Z,"  19.32"
2019-04-26T02:53:12.000Z,"  19.37"
2019-04-26T02:54:12.000Z,"  19.33"
2019-04-26T02:55:13.000Z,"  19.36"
2019-04-26T02:56:13.000Z,"  19.33"
2019-04-26T02:57:13.000Z,"  19.36"
2019-04-26T02:58:12.000Z,"  19.35"
2019-04-26T02:59:12.000Z,"  19.33"
2019-04-26T03:00:12.000Z,"  19.32"
2019-04-26T03:01:12.000Z,"  19.36"
2019-04-26T03:02:12.000Z,"  19.33"
2019-04-26T03:03:12.000Z,"  19.35"
2019-04-26T03:04:12.000Z,"  19.36"
2019-04-26T03:05:12.000Z,"  19.35"
2019-04-26T03:06:12.000Z,"  19.35"
2019-04-26T03:07:12.000Z,"  19.35"
2019-04-26T03:08:12.000Z,"  19.35"
2019-04-26T03:09:12.000Z,"  19.35"
2019-04-26T03:10:13.000Z,"  19.33"
2019-04-26T03:11:12.000Z,"  19.35"
2019-04-26T03:12:12.000Z,"  19.33"
2019-04-26T03:13:13.000Z,"  19.33"
2019-04-26T03:14:12.000Z,"  19.33"
2019-04-26T03:15:12.000Z,"  19.35"
2019-04-26T03:16:12.000Z,"  19.32"
2019-04-26T03:17:12.000Z,"  19.33"
2019-04-26T03:18:13.000Z,"  19.36"
2019-04-26T03:19:12.000Z,"  19.32"
2019-04-26T03:20:12.000Z,"  19.33"
2019-04-26T03:21:12.000Z,"  19.35"
2019-04-26T03:22:12.000Z,"  19.35"
2019-04-26T03:23:12.000Z,"  19.32"
2019-04-26T03:24:12.000Z,"  19.32"
2019-04-26T03:25:12.000Z,"  19.32"
2019-04-26T03:26:13.000Z,"  19.31"
2019-04-26T03:27:12.000Z,"  19.32"
2019-04-26T03:28:12.000Z,"  19.33"
2019-04-26T03:29:13.000Z,"  19.32"
2019-04-26T03:30:13.000Z,"  19.32"
2019-04-26T03:31:13.000Z,"  19.32"
2019-04-26T03:32:12.000Z,"  19.32"
2019-04-26T03:33:12.000Z,"  19.32"
2019-04-26T03:34:12.000Z,"  19.32"
2019-04-26T03:35:11.000Z,"  19.29"
2019-04-26T03:36:11.000Z,"  19.31"
2019-04-26T03:37:11.000Z,"  19.32"
2019-04-26T03:38:11.000Z,"  19.30"
2019-04-26T03:39:11.000Z,"  19.29"
2019-04-26T03:40:12.000Z,"  19.30"
2019-04-26T03:41:12.000Z,"  19.32"
2019-04-26T03:42:12.000Z,"  19.30"
2019-04-26T03:43:11.000Z,"  19.31"
2019-04-26T03:44:12.000Z,"  19.30"
2019-04-26T03:45:12.000Z,"  19.30"
2019-04-26T03:46:12.000Z,"  19.32"
2019-04-26T03:47:11.000Z,"  19.31"
2019-04-26T03:48:12.000Z,"  19.32"
2019-04-26T03:49:12.000Z,"  19.29"
2019-04-26T03:50:11.000Z,"  19.30"
2019-04-26T03:51:11.000Z,"  19.30"
2019-04-26T03:52:11.000Z,"  19.31"
2019-04-26T03:53:11.000Z,"  19.29"
2019-04-26T03:54:12.000Z,"  19.29"
2019-04-26T03:55:12.000Z,"  19.30"
2019-04-26T03:56:12.000Z,"  19.31"
2019-04-26T03:57:12.000Z,"  19.31"
2019-04-26T03:58:12.000Z,"  19.31"
2019-04-26T03:59:11.000Z,"  19.30"
2019-04-26T04:00:12.000Z,"  19.29"
2019-04-26T04:01:12.000Z,"  19.32"
2019-04-26T04:02:12.000Z,"  19.31"
2019-04-26T04:03:12.000Z,"  19.29"
2019-04-26T04:04:12.000Z,"  19.29"
2019-04-26T04:05:13.000Z,"  19.31"
2019-04-26T04:06:13.000Z,"  19.31"
2019-04-26T04:07:12.000Z,"  19.29"
2019-04-26T04:08:12.000Z,"  19.30"
2019-04-26T04:09:12.000Z,"  19.30"
2019-04-26T04:10:12.000Z,"  19.29"
2019-04-26T04:11:12.000Z,"  19.31"
2019-04-26T04:12:12.000Z,"  19.31"
2019-04-26T04:13:12.000Z,"  19.30"
2019-04-26T04:14:12.000Z,"  19.31"
2019-04-26T04:15:12.000Z,"  19.29"
2019-04-26T04:16:12.000Z,"  19.29"
2019-04-26T04:17:12.000Z,"  19.27"
2019-04-26T04:18:12.000Z,"  19.31"
2019-04-26T04:19:12.000Z,"  19.31"
2019-04-26T04:20:12.000Z,"  19.30"
2019-04-26T04:21:12.000Z,"  19.29"
2019-04-26T04:22:13.000Z,"  19.31"
2019-04-26T04:23:13.000Z,"  19.31"
2019-04-26T04:24:13.000Z,"  19.31"
2019-04-26T04:25:13.000Z,"  19.32"
2019-04-26T04:26:13.000Z,"  19.32"
2019-04-26T04:27:12.000Z,"  19.29"
2019-04-26T04:28:12.000Z,"  19.30"
2019-04-26T04:29:12.000Z,"  19.31"
2019-04-26T04:30:12.000Z,"  19.29"
2019-04-26T04:31:12.000Z,"  19.30"
2019-04-26T04:32:12.000Z,"  19.29"
2019-04-26T04:33:12.000Z,"  19.31"
2019-04-26T04:34:13.000Z,"  19.29"
2019-04-26T04:35:12.000Z,"  19.31"
2019-04-26T04:36:12.000Z,"  19.30"
2019-04-26T04:37:12.000Z,"  19.28"
2019-04-26T04:38:12.000Z,"  19.29"
2019-04-26T04:39:12.000Z,"  19.29"
2019-04-26T04:40:12.000Z,"  19.29"
2019-04-26T04:41:12.000Z,"  19.32"
2019-04-26T04:42:12.000Z,"  19.30"
2019-04-26T04:43:12.000Z,"  19.30"
2019-04-26T04:44:13.000Z,"  19.31"
2019-04-26T04:45:12.000Z,"  19.32"
2019-04-26T04:46:12.000Z,"  19.31"
2019-04-26T04:47:12.000Z,"  19.31"
2019-04-26T04:48:12.000Z,"  19.31"
2019-04-26T04:49:12.000Z,"  19.30"
2019-04-26T04:50:12.000Z,"  19.31"
2019-04-26T04:51:12.000Z,"  19.31"
2019-04-26T04:52:12.000Z,"  19.31"
2019-04-26T04:53:12.000Z,"  19.29"
2019-04-26T04:54:12.000Z,"  19.30"
2019-04-26T04:55:12.000Z,"  19.32"
2019-04-26T04:56:12.000Z,"  19.30"
2019-04-26T04:57:13.000Z,"  19.31"
2019-04-26T04:58:12.000Z,"  19.31"
2019-04-26T04:59:12.000Z,"  19.32"
2019-04-26T05:00:13.000Z,"  19.30"
2019-04-26T05:01:13.000Z,"  19.32"
2019-04-26T05:02:12.000Z,"  19.32"
2019-04-26T05:03:12.000Z,"  19.31"
2019-04-26T05:04:12.000Z,"  19.30"
2019-04-26T05:05:12.000Z,"  19.31"
2019-04-26T05:06:13.000Z,"  19.29"
2019-04-26T05:07:12.000Z,"  19.30"
2019-04-26T05:08:13.000Z,"  19.31"
2019-04-26T05:09:13.000Z,"  19.31"
2019-04-26T05:10:13.000Z,"  19.31"
2019-04-26T05:11:12.000Z,"  19.30"
2019-04-26T05:12:12.000Z,"  19.31"
2019-04-26T05:13:12.000Z,"  19.30"
2019-04-26T05:14:13.000Z,"  19.31"
2019-04-26T05:15:12.000Z,"  19.31"
2019-04-26T05:16:13.000Z,"  19.30"
2019-04-26T05:17:13.000Z,"  19.29"
2019-04-26T05:18:13.000Z,"  19.32"
2019-04-26T05:19:13.000Z,"  19.31"
2019-04-26T05:20:13.000Z,"  19.32"
2019-04-26T05:21:12.000Z,"  19.35"
2019-04-26T05:22:12.000Z,"  19.35"
2019-04-26T05:23:12.000Z,"  19.35"
2019-04-26T05:24:12.000Z,"  19.37"
2019-04-26T05:25:12.000Z,"  19.37"
2019-04-26T05:26:12.000Z,"  19.39"
2019-04-26T05:27:13.000Z,"  19.40"
2019-04-26T05:28:13.000Z,"  19.40"
2019-04-26T05:29:12.000Z,"  19.40"
2019-04-26T05:30:12.000Z,"  19.41"
2019-04-26T05:31:12.000Z,"  19.42"
2019-04-26T05:32:13.000Z,"  19.43"
2019-04-26T05:33:13.000Z,"  19.44"
2019-04-26T05:34:12.000Z,"  19.43"
2019-04-26T05:35:13.000Z,"  19.45"
2019-04-26T05:36:12.000Z,"  19.46"
2019-04-26T05:37:12.000Z,"  19.45"
2019-04-26T05:38:13.000Z,"  19.46"
2019-04-26T05:39:12.000Z,"  19.47"
2019-04-26T05:40:12.000Z,"  19.47"
2019-04-26T05:41:12.000Z,"  19.50"
2019-04-26T05:42:12.000Z,"  19.48"
2019-04-26T05:43:12.000Z,"  19.48"
2019-04-26T05:44:12.000Z,"  19.51"
2019-04-26T05:45:12.000Z,"  19.51"
2019-04-26T05:46:12.000Z,"  19.51"
2019-04-26T05:46:44.000Z,"  19.54"
2019-04-26T05:47:44.000Z,"  19.52"
2019-04-26T05:48:44.000Z,"  19.53"
2019-04-26T05:49:44.000Z,"  19.52"
2019-04-26T05:50:44.000Z,"  19.50"
2019-04-26T05:51:44.000Z,"  19.50"
2019-04-26T05:52:48.000Z,"  19.51"
2019-04-26T05:53:48.000Z,"  19.50"
2019-04-26T05:54:48.000Z,"  19.48"
2019-04-26T05:55:48.000Z,"  19.47"
2019-04-26T05:56:48.000Z,"  19.46"
2019-04-26T05:57:48.000Z,"  19.48"
2019-04-26T05:58:48.000Z,"  19.50"
2019-04-26T05:59:56.000Z,"  19.50"
2019-04-26T06:00:57.000Z,"  19.47"
2019-04-26T06:01:56.000Z,"  19.46"
2019-04-26T06:02:56.000Z,"  19.46"
2019-04-26T06:03:56.000Z,"  19.45"
2019-04-26T06:04:56.000Z,"  19.47"
2019-04-26T06:05:56.000Z,"  19.45"
2019-04-26T06:06:56.000Z,"  19.45"
2019-04-26T06:11:13.000Z,"  19.46"
2019-04-26T06:12:13.000Z,"  19.47"
2019-04-26T06:13:13.000Z,"  19.45"
2019-04-26T06:14:13.000Z,"  19.47"
2019-04-26T06:15:13.000Z,"  19.45"
2019-04-26T06:16:13.000Z,"  19.47"
2019-04-26T06:17:13.000Z,"  19.45"
2019-04-26T06:18:13.000Z,"  19.45"
2019-04-26T06:19:13.000Z,"  19.46"
2019-04-26T06:20:13.000Z,"  19.48"
2019-04-26T06:21:13.000Z,"  19.45"
2019-04-26T06:22:13.000Z,"  19.48"
2019-04-26T06:23:13.000Z,"  19.48"
2019-04-26T06:24:13.000Z,"  19.47"
2019-04-26T06:25:13.000Z,"  19.47"
2019-04-26T06:26:13.000Z,"  19.47"
2019-04-26T06:27:13.000Z,"  19.46"
2019-04-26T06:28:13.000Z,"  19.48"
2019-04-26T06:29:14.000Z,"  19.46"
2019-04-26T06:30:13.000Z,"  19.47"
2019-04-26T06:31:13.000Z,"  19.48"
2019-04-26T06:32:13.000Z,"  19.46"
2019-04-26T06:33:13.000Z,"  19.47"
2019-04-26T06:34:13.000Z,"  19.47"
2019-04-26T06:35:13.000Z,"  19.48"
2019-04-26T06:36:13.000Z,"  19.44"
2019-04-26T06:37:13.000Z,"  19.45"
2019-04-26T06:38:13.000Z,"  19.44"
2019-04-26T06:39:13.000Z,"  19.43"
2019-04-26T06:40:13.000Z,"  19.42"
2019-04-26T06:41:13.000Z,"  19.40"
2019-04-26T06:42:14.000Z,"  19.41"
2019-04-26T06:43:14.000Z,"  19.42"
2019-04-26T06:44:14.000Z,"  19.42"
2019-04-26T06:45:14.000Z,"  19.42"
2019-04-26T06:46:14.000Z,"  19.45"
2019-04-26T06:47:14.000Z,"  19.48"
2019-04-26T06:48:14.000Z,"  19.44"
2019-04-26T06:49:14.000Z,"  19.47"
2019-04-26T06:50:14.000Z,"  19.45"
2019-04-26T06:51:13.000Z,"  19.45"
2019-04-26T06:52:13.000Z,"  19.43"
2019-04-26T06:53:13.000Z,"  19.43"
2019-04-26T06:54:13.000Z,"  19.41"
2019-04-26T06:55:14.000Z,"  19.41"
2019-04-26T07:00:29.000Z,"  19.38"
2019-04-26T07:01:29.000Z,"  19.36"
2019-04-26T07:02:29.000Z,"  19.36"
2019-04-26T07:03:29.000Z,"  19.36"
2019-04-26T07:04:29.000Z,"  19.35"
2019-04-26T07:05:29.000Z,"  19.33"
2019-04-26T07:06:29.000Z,"  19.32"
2019-04-26T07:07:29.000Z,"  19.33"
2019-04-26T07:08:29.000Z,"  19.35"
2019-04-26T07:09:29.000Z,"  19.35"
2019-04-26T07:10:29.000Z,"  19.35"
2019-04-26T07:11:29.000Z,"  19.32"
2019-04-26T07:12:29.000Z,"  19.32"
2019-04-26T07:13:29.000Z,"  19.31"
2019-04-26T07:14:29.000Z,"  19.33"
2019-04-26T07:15:30.000Z,"  19.31"
2019-04-26T07:16:30.000Z,"  19.32"
2019-04-26T07:17:29.000Z,"  19.32"
2019-04-26T07:18:29.000Z,"  19.32"
2019-04-26T07:19:29.000Z,"  19.31"
2019-04-26T07:20:30.000Z,"  19.29"
2019-04-26T07:21:29.000Z,"  19.29"
2019-04-26T07:22:29.000Z,"  19.29"
2019-04-26T07:23:29.000Z,"  19.31"
2019-04-26T07:24:29.000Z,"  19.29"
2019-04-26T07:25:29.000Z,"  19.29"
2019-04-26T07:26:29.000Z,"  19.29"
2019-04-26T07:27:29.000Z,"  19.28"
2019-04-26T07:28:29.000Z,"  19.27"
2019-04-26T07:29:29.000Z,"  19.28"
2019-04-26T07:30:29.000Z,"  19.28"
2019-04-26T07:31:30.000Z,"  19.27"
2019-04-26T07:32:30.000Z,"  19.26"
2019-04-26T07:33:30.000Z,"  19.28"
2019-04-26T07:34:30.000Z,"  19.26"
2019-04-26T07:35:30.000Z,"  19.25"
2019-04-26T07:36:30.000Z,"  19.27"
2019-04-26T07:37:30.000Z,"  19.26"
2019-04-26T07:38:30.000Z,"  19.25"
2019-04-26T07:39:29.000Z,"  19.27"
2019-04-26T07:40:29.000Z,"  19.26"
2019-04-26T07:41:29.000Z,"  19.22"
2019-04-26T07:42:30.000Z,"  19.23"
2019-04-26T07:43:30.000Z,"  19.22"
2019-04-26T07:44:30.000Z,"  19.20"
2019-04-26T07:45:30.000Z,"  19.20"
2019-04-26T07:46:29.000Z,"  19.20"
2019-04-26T07:47:30.000Z,"  19.17"
2019-04-26T07:48:30.000Z,"  19.18"
2019-04-26T07:49:30.000Z,"  19.17"
2019-04-26T07:50:30.000Z,"  19.17"
2019-04-26T07:51:30.000Z,"  19.20"
2019-04-26T07:52:30.000Z,"  19.15"
2019-04-26T07:53:30.000Z,"  19.15"
2019-04-26T07:54:30.000Z,"  19.15"
2019-04-26T07:55:30.000Z,"  19.16"
2019-04-26T07:56:30.000Z,"  19.15"
2019-04-26T07:57:30.000Z,"  19.13"
2019-04-26T07:58:30.000Z,"  19.14"
2019-04-26T07:59:30.000Z,"  19.14"
2019-04-26T08:01:45.000Z,"  19.12"
2019-04-26T08:02:45.000Z,"  19.11"
2019-04-26T08:03:45.000Z,"  19.09"
2019-04-26T08:04:46.000Z,"  19.10"
2019-04-26T08:05:45.000Z,"  19.10"
2019-04-26T08:06:45.000Z,"  19.09"
2019-04-26T08:07:45.000Z,"  19.08"
2019-04-26T08:08:45.000Z,"  19.09"
2019-04-26T08:09:45.000Z,"  19.09"
2019-04-26T08:10:45.000Z,"  19.08"
2019-04-26T08:11:45.000Z,"  19.09"
2019-04-26T08:12:45.000Z,"  19.09"
2019-04-26T08:13:45.000Z,"  19.08"
2019-04-26T08:14:45.000Z,"  19.07"
2019-04-26T08:15:45.000Z,"  19.08"
2019-04-26T08:16:45.000Z,"  19.09"
2019-04-26T08:17:45.000Z,"  19.09"
2019-04-26T08:18:45.000Z,"  19.07"
2019-04-26T08:19:45.000Z,"  19.07"
2019-04-26T08:20:45.000Z,"  19.07"
2019-04-26T08:21:45.000Z,"  19.06"
2019-04-26T08:22:45.000Z,"  19.08"
2019-04-26T08:23:45.000Z,"  19.06"
2019-04-26T08:24:45.000Z,"  19.06"
2019-04-26T08:25:45.000Z,"  19.02"
2019-04-26T08:26:45.000Z,"  19.05"
2019-04-26T08:27:45.000Z,"  19.06"
2019-04-26T08:28:45.000Z,"  19.08"
2019-04-26T08:29:45.000Z,"  19.06"
2019-04-26T08:30:46.000Z,"  19.05"
2019-04-26T08:31:45.000Z,"  19.05"
2019-04-26T08:32:46.000Z,"  19.03"
2019-04-26T08:33:46.000Z,"  19.06"
2019-04-26T08:34:45.000Z,"  19.05"
2019-04-26T08:35:45.000Z,"  19.05"
2019-04-26T08:36:45.000Z,"  19.06"
2019-04-26T08:37:45.000Z,"  19.05"
2019-04-26T08:38:45.000Z,"  19.03"
2019-04-26T08:39:45.000Z,"  19.05"
2019-04-26T08:40:45.000Z,"  19.02"
2019-04-26T08:41:46.000Z,"  19.03"
2019-04-26T08:42:45.000Z,"  19.01"
2019-04-26T08:43:45.000Z,"  19.01"
2019-04-26T08:44:45.000Z,"  19.02"
2019-04-26T08:45:45.000Z,"  19.03"
2019-04-26T08:46:45.000Z,"  19.01"
2019-04-26T08:47:45.000Z,"  18.99"
2019-04-26T08:48:46.000Z,"  19.03"
2019-04-26T08:49:45.000Z,"  19.06"
2019-04-26T08:50:45.000Z,"  19.06"
2019-04-26T08:51:46.000Z,"  19.08"
2019-04-26T08:52:45.000Z,"  19.10"
2019-04-26T08:53:45.000Z,"  19.09"
2019-04-26T08:54:45.000Z,"  19.11"
2019-04-26T08:55:45.000Z,"  19.11"
2019-04-26T08:56:45.000Z,"  19.12"
2019-04-26T08:57:45.000Z,"  19.13"
2019-04-26T08:58:45.000Z,"  19.13"
2019-04-26T08:59:45.000Z,"  19.13"
2019-04-26T09:00:45.000Z,"  19.13"
2019-04-26T09:03:02.000Z,"  19.13"
2019-04-26T09:04:01.000Z,"  19.13"
2019-04-26T09:05:01.000Z,"  19.16"
2019-04-26T09:06:01.000Z,"  19.17"
2019-04-26T09:07:01.000Z,"  19.18"
2019-04-26T09:08:01.000Z,"  19.17"
2019-04-26T09:09:01.000Z,"  19.21"
2019-04-26T09:10:01.000Z,"  19.22"
2019-04-26T09:11:01.000Z,"  19.24"
2019-04-26T09:12:01.000Z,"  19.23"
2019-04-26T09:13:01.000Z,"  19.26"
2019-04-26T09:14:01.000Z,"  19.30"
2019-04-26T09:15:01.000Z,"  19.30"
2019-04-26T09:16:01.000Z,"  19.31"
2019-04-26T09:17:02.000Z,"  19.31"
2019-04-26T09:18:01.000Z,"  19.30"
2019-04-26T09:19:01.000Z,"  19.35"
2019-04-26T09:20:01.000Z,"  19.37"
2019-04-26T09:21:01.000Z,"  19.36"
2019-04-26T09:22:02.000Z,"  19.36"
2019-04-26T09:23:01.000Z,"  19.36"
2019-04-26T09:24:02.000Z,"  19.35"
2019-04-26T09:25:01.000Z,"  19.32"
2019-04-26T09:26:01.000Z,"  19.36"
2019-04-26T09:27:01.000Z,"  19.35"
2019-04-26T09:28:01.000Z,"  19.32"
2019-04-26T09:29:01.000Z,"  19.32"
2019-04-26T09:30:01.000Z,"  19.35"
2019-04-26T09:31:01.000Z,"  19.32"
2019-04-26T09:32:01.000Z,"  19.32"
2019-04-26T09:33:01.000Z,"  19.33"
2019-04-26T09:34:02.000Z,"  19.32"
2019-04-26T09:35:02.000Z,"  19.30"
2019-04-26T09:36:02.000Z,"  19.30"
2019-04-26T09:37:02.000Z,"  19.31"
2019-04-26T09:38:02.000Z,"  19.31"
2019-04-26T09:39:02.000Z,"  19.27"
2019-04-26T09:40:02.000Z,"  19.28"
2019-04-26T09:41:02.000Z,"  19.28"
2019-04-26T09:42:02.000Z,"  19.28"
2019-04-26T09:43:02.000Z,"  19.26"
2019-04-26T09:44:02.000Z,"  19.27"
2019-04-26T09:45:02.000Z,"  19.28"
2019-04-26T09:46:02.000Z,"  19.26"
2019-04-26T09:47:02.000Z,"  19.25"
2019-04-26T09:48:01.000Z,"  19.28"
2019-04-26T09:49:02.000Z,"  19.30"
2019-04-26T09:50:01.000Z,"  19.32"
2019-04-26T09:51:02.000Z,"  19.32"
2019-04-26T09:52:02.000Z,"  19.31"
2019-04-26T09:53:02.000Z,"  19.33"
2019-04-26T09:54:02.000Z,"  19.32"
2019-04-26T09:55:02.000Z,"  19.32"
2019-04-26T09:56:02.000Z,"  19.33"
2019-04-26T09:57:02.000Z,"  19.32"
2019-04-26T10:01:17.000Z,"  19.35"
2019-04-26T10:02:17.000Z,"  19.35"
2019-04-26T10:03:17.000Z,"  19.35"
2019-04-26T10:04:17.000Z,"  19.36"
2019-04-26T10:05:17.000Z,"  19.33"
2019-04-26T10:06:45.000Z,"  19.36"
2019-04-26T10:07:45.000Z,"  19.36"
2019-04-26T10:08:45.000Z,"  19.36"
2019-04-26T10:16:06.000Z,19.38
2019-04-26T10:17:05.000Z,19.40
2019-04-26T10:18:05.000Z,19.41
2019-04-26T10:19:23.000Z,19.42
2019-04-26T10:20:23.000Z,19.44
2019-04-26T10:21:22.000Z,19.44
2019-04-26T10:22:22.000Z,19.46
2019-04-26T10:23:04.000Z,"  19.47"
2019-04-26T10:24:04.000Z,"  19.45"
2019-04-26T10:25:04.000Z,"  19.46"
2019-04-26T10:26:04.000Z,"  19.46"
2019-04-26T10:27:05.000Z,"  19.45"
2019-04-26T10:28:04.000Z,"  19.46"
2019-04-26T10:29:04.000Z,"  19.47"
2019-04-26T10:30:04.000Z,"  19.50"
2019-04-26T10:31:04.000Z,"  19.52"
2019-04-26T10:32:04.000Z,"  19.51"
2019-04-26T10:33:04.000Z,"  19.48"
2019-04-26T10:34:04.000Z,"  19.46"
2019-04-26T10:35:04.000Z,"  19.45"
2019-04-26T10:36:04.000Z,"  19.45"
2019-04-26T10:37:04.000Z,"  19.43"
2019-04-26T10:38:04.000Z,"  19.44"
2019-04-26T10:39:05.000Z,"  19.43"
2019-04-26T10:40:04.000Z,"  19.43"
2019-04-26T10:41:05.000Z,"  19.39"
2019-04-26T10:42:05.000Z,"  19.40"
2019-04-26T10:43:04.000Z,"  19.40"
2019-04-26T10:44:04.000Z,"  19.38"
2019-04-26T10:45:04.000Z,"  19.38"
2019-04-26T10:46:05.000Z,"  19.39"
2019-04-26T10:47:04.000Z,"  19.38"
2019-04-26T10:48:05.000Z,"  19.38"
2019-04-26T10:49:05.000Z,"  19.38"
2019-04-26T10:50:04.000Z,"  19.40"
2019-04-26T10:51:04.000Z,"  19.35"
2019-04-26T10:52:04.000Z,"  19.36"
2019-04-26T10:53:04.000Z,"  19.32"
2019-04-26T10:54:05.000Z,"  19.35"
2019-04-26T10:55:05.000Z,"  19.32"
2019-04-26T10:56:05.000Z,"  19.33"
2019-04-26T10:57:05.000Z,"  19.32"
2019-04-26T10:58:05.000Z,"  19.35"
2019-04-26T10:59:05.000Z,"  19.33"
2019-04-26T11:00:20.000Z,"  19.35"
2019-04-26T11:01:20.000Z,"  19.35"
2019-04-26T11:02:21.000Z,"  19.35"
2019-04-26T11:03:20.000Z,"  19.36"
2019-04-26T11:04:20.000Z,"  19.36"
2019-04-26T11:05:21.000Z,"  19.36"
2019-04-26T11:06:20.000Z,"  19.35"
2019-04-26T11:07:20.000Z,"  19.32"
2019-04-26T11:08:20.000Z,"  19.33"
2019-04-26T11:09:20.000Z,"  19.35"
2019-04-26T11:10:20.000Z,"  19.31"
2019-04-26T11:11:20.000Z,"  19.32"
2019-04-26T11:12:21.000Z,"  19.30"
2019-04-26T11:13:20.000Z,"  19.30"
2019-04-26T11:14:20.000Z,"  19.29"
2019-04-26T11:15:20.000Z,"  19.31"
2019-04-26T11:16:20.000Z,"  19.30"
2019-04-26T11:17:20.000Z,"  19.30"
2019-04-26T11:18:20.000Z,"  19.32"
2019-04-26T11:19:20.000Z,"  19.31"
2019-04-26T11:20:20.000Z,"  19.28"
2019-04-26T11:21:20.000Z,"  19.31"
2019-04-26T11:22:20.000Z,"  19.30"
2019-04-26T11:23:21.000Z,"  19.32"
2019-04-26T11:24:20.000Z,"  19.32"
2019-04-26T11:25:20.000Z,"  19.29"
2019-04-26T11:26:20.000Z,"  19.30"
2019-04-26T11:27:20.000Z,"  19.31"
2019-04-26T11:28:21.000Z,"  19.31"
2019-04-26T11:29:21.000Z,"  19.36"
2019-04-26T11:30:20.000Z,"  19.35"
2019-04-26T11:31:20.000Z,"  19.35"
2019-04-26T11:32:21.000Z,"  19.33"
2019-04-26T11:33:21.000Z,"  19.35"
2019-04-26T11:34:21.000Z,"  19.32"
2019-04-26T11:35:21.000Z,"  19.31"
2019-04-26T11:36:21.000Z,"  19.30"
2019-04-26T11:37:21.000Z,"  19.29"
2019-04-26T11:38:21.000Z,"  19.32"
2019-04-26T11:39:21.000Z,"  19.29"
2019-04-26T11:40:21.000Z,"  19.27"
2019-04-26T11:41:21.000Z,"  19.29"
2019-04-26T11:42:21.000Z,"  19.31"
2019-04-26T11:43:21.000Z,"  19.30"
2019-04-26T11:44:21.000Z,"  19.29"
2019-04-26T11:45:21.000Z,"  19.29"